sensor_id;sensor_type;location;lat;lon;timestamp;pressure;altitude;pressure_sealevel;temperature;humidity
14343;BME280;7255;53.596;9.960;2023-03-26T00:01:33;99875.94;;;7.44;nan
14343;BME280;7255;53.596;9.960;2023-03-26T00:04:03;99869.31;;;7.46;nan
14343;BME280;7255;53.596;9.960;2023-03-26T00:06:32;99873.56;;;7.36;nan
14343;BME280;7255;53.596;9.960;2023-03-26T00:09:02;99869.91;;;7.30;nan
14343;BME280;7255;53.596;9.960;2023-03-26T00:11:29;99885.59;;;7.26;nan
14343;BME280;7255;53.596;9.960;2023-03-26T00:13:56;99882.75;;;7.21;nan
14343;BME280;7255;53.596;9.960;2023-03-26T00:16:24;99884.09;;;7.12;nan
14343;BME280;7255;53.596;9.960;2023-03-26T00:18:51;99894.34;;;7.15;nan
14343;BME280;7255;53.596;9.960;2023-03-26T00:21:20;99897.97;;;7.21;nan
14343;BME280;7255;53.596;9.960;2023-03-26T00:23:50;99891.00;;;7.20;nan
14343;BME280;7255;53.596;9.960;2023-03-26T00:26:17;99912.31;;;7.26;nan
14343;BME280;7255;53.596;9.960;2023-03-26T00:28:44;99916.38;;;7.29;nan
14343;BME280;7255;53.596;9.960;2023-03-26T00:31:13;99915.41;;;7.42;nan
14343;BME280;7255;53.596;9.960;2023-03-26T00:33:40;99904.44;;;7.31;nan
14343;BME280;7255;53.596;9.960;2023-03-26T00:36:08;99915.66;;;7.22;nan
14343;BME280;7255;53.596;9.960;2023-03-26T00:38:37;99914.00;;;7.21;nan
14343;BME280;7255;53.596;9.960;2023-03-26T00:41:05;99917.34;;;7.16;nan
14343;BME280;7255;53.596;9.960;2023-03-26T00:43:33;99928.41;;;7.20;nan
14343;BME280;7255;53.596;9.960;2023-03-26T00:46:00;99927.59;;;7.19;nan
14343;BME280;7255;53.596;9.960;2023-03-26T00:48:27;99918.53;;;7.20;nan
14343;BME280;7255;53.596;9.960;2023-03-26T00:50:55;99918.16;;;7.17;nan
14343;BME280;7255;53.596;9.960;2023-03-26T00:53:22;99923.06;;;7.20;nan
14343;BME280;7255;53.596;9.960;2023-03-26T00:55:50;99921.97;;;7.09;nan
14343;BME280;7255;53.596;9.960;2023-03-26T00:58:16;99927.28;;;7.09;nan
14343;BME280;7255;53.596;9.960;2023-03-26T01:00:48;99930.56;;;7.11;nan
14343;BME280;7255;53.596;9.960;2023-03-26T01:03:19;99932.94;;;7.19;nan
14343;BME280;7255;53.596;9.960;2023-03-26T01:05:48;99941.47;;;7.28;nan
14343;BME280;7255;53.596;9.960;2023-03-26T01:08:24;99945.56;;;7.30;nan
14343;BME280;7255;53.596;9.960;2023-03-26T01:10:54;99949.03;;;7.12;nan
14343;BME280;7255;53.596;9.960;2023-03-26T01:13:27;99937.97;;;7.09;nan
14343;BME280;7255;53.596;9.960;2023-03-26T01:15:55;99954.94;;;6.96;nan
14343;BME280;7255;53.596;9.960;2023-03-26T01:18:23;99964.13;;;6.82;nan
14343;BME280;7255;53.596;9.960;2023-03-26T01:20:51;99948.56;;;6.72;nan
14343;BME280;7255;53.596;9.960;2023-03-26T01:23:25;99942.56;;;6.51;nan
14343;BME280;7255;53.596;9.960;2023-03-26T01:26:02;99956.91;;;6.57;nan
14343;BME280;7255;53.596;9.960;2023-03-26T01:28:34;99951.62;;;6.50;nan
14343;BME280;7255;53.596;9.960;2023-03-26T01:31:09;99965.19;;;6.49;nan
14343;BME280;7255;53.596;9.960;2023-03-26T01:33:41;99964.91;;;6.32;nan
14343;BME280;7255;53.596;9.960;2023-03-26T01:36:16;99974.69;;;6.38;nan
14343;BME280;7255;53.596;9.960;2023-03-26T01:38:49;99975.91;;;6.42;nan
14343;BME280;7255;53.596;9.960;2023-03-26T01:41:23;99979.22;;;6.38;nan
14343;BME280;7255;53.596;9.960;2023-03-26T01:43:57;99976.31;;;6.39;nan
14343;BME280;7255;53.596;9.960;2023-03-26T01:46:26;99979.59;;;6.41;nan
14343;BME280;7255;53.596;9.960;2023-03-26T01:48:52;99973.81;;;6.44;nan
14343;BME280;7255;53.596;9.960;2023-03-26T01:51:25;99974.28;;;6.41;nan
14343;BME280;7255;53.596;9.960;2023-03-26T01:53:52;99968.16;;;6.34;nan
14343;BME280;7255;53.596;9.960;2023-03-26T01:56:24;99983.31;;;6.33;nan
14343;BME280;7255;53.596;9.960;2023-03-26T01:59:03;99973.88;;;6.38;nan
14343;BME280;7255;53.596;9.960;2023-03-26T02:01:36;99980.03;;;6.38;nan
14343;BME280;7255;53.596;9.960;2023-03-26T02:04:17;99977.97;;;6.40;nan
14343;BME280;7255;53.596;9.960;2023-03-26T02:06:50;99983.31;;;6.40;nan
14343;BME280;7255;53.596;9.960;2023-03-26T02:09:21;99976.75;;;6.36;nan
14343;BME280;7255;53.596;9.960;2023-03-26T02:11:52;99973.50;;;6.34;nan
14343;BME280;7255;53.596;9.960;2023-03-26T02:14:19;99980.81;;;6.45;nan
14343;BME280;7255;53.596;9.960;2023-03-26T02:16:45;99979.59;;;6.41;nan
14343;BME280;7255;53.596;9.960;2023-03-26T02:19:12;99988.22;;;6.43;nan
14343;BME280;7255;53.596;9.960;2023-03-26T02:21:39;99979.22;;;6.38;nan
14343;BME280;7255;53.596;9.960;2023-03-26T02:24:06;99976.75;;;6.36;nan
14343;BME280;7255;53.596;9.960;2023-03-26T02:26:34;99970.16;;;6.39;nan
14343;BME280;7255;53.596;9.960;2023-03-26T02:29:03;99977.53;;;6.43;nan
14343;BME280;7255;53.596;9.960;2023-03-26T02:31:29;99972.63;;;6.40;nan
14343;BME280;7255;53.596;9.960;2023-03-26T02:33:55;99961.53;;;6.43;nan
14343;BME280;7255;53.596;9.960;2023-03-26T02:36:22;99977.16;;;6.40;nan
14343;BME280;7255;53.596;9.960;2023-03-26T02:38:52;99971.81;;;6.40;nan
14343;BME280;7255;53.596;9.960;2023-03-26T02:41:18;99980.81;;;6.45;nan
14343;BME280;7255;53.596;9.960;2023-03-26T02:43:45;99971.75;;;6.46;nan
14343;BME280;7255;53.596;9.960;2023-03-26T02:46:13;99980.34;;;6.48;nan
14343;BME280;7255;53.596;9.960;2023-03-26T02:48:39;99992.25;;;6.52;nan
14343;BME280;7255;53.596;9.960;2023-03-26T02:51:06;99984.06;;;6.47;nan
14343;BME280;7255;53.596;9.960;2023-03-26T02:53:33;99989.53;;;6.27;nan
14343;BME280;7255;53.596;9.960;2023-03-26T02:56:01;99991.22;;;6.22;nan
14343;BME280;7255;53.596;9.960;2023-03-26T02:58:28;99981.41;;;6.15;nan
14343;BME280;7255;53.596;9.960;2023-03-26T03:00:55;99978.19;;;6.00;nan
14343;BME280;7255;53.596;9.960;2023-03-26T03:03:24;99976.97;;;5.96;nan
14343;BME280;7255;53.596;9.960;2023-03-26T03:05:51;99988.03;;;5.93;nan
14343;BME280;7255;53.596;9.960;2023-03-26T03:08:18;99990.50;;;6.01;nan
14343;BME280;7255;53.596;9.960;2023-03-26T03:10:54;99975.34;;;5.88;nan
14343;BME280;7255;53.596;9.960;2023-03-26T03:13:20;99983.13;;;5.90;nan
14343;BME280;7255;53.596;9.960;2023-03-26T03:15:47;99995.81;;;5.94;nan
14343;BME280;7255;53.596;9.960;2023-03-26T03:18:13;99995.84;;;6.01;nan
14343;BME280;7255;53.596;9.960;2023-03-26T03:20:41;99982.69;;;6.06;nan
14343;BME280;7255;53.596;9.960;2023-03-26T03:23:07;99984.31;;;6.07;nan
14343;BME280;7255;53.596;9.960;2023-03-26T03:25:34;99980.66;;;6.02;nan
14343;BME280;7255;53.596;9.960;2023-03-26T03:28:00;99981.50;;;5.89;nan
14343;BME280;7255;53.596;9.960;2023-03-26T03:30:26;99973.28;;;5.90;nan
14343;BME280;7255;53.596;9.960;2023-03-26T03:32:53;99980.63;;;5.95;nan
14343;BME280;7255;53.596;9.960;2023-03-26T03:35:22;99977.81;;;5.90;nan
14343;BME280;7255;53.596;9.960;2023-03-26T03:37:50;99968.75;;;5.91;nan
14343;BME280;7255;53.596;9.960;2023-03-26T03:40:16;99964.63;;;5.95;nan
14343;BME280;7255;53.596;9.960;2023-03-26T03:42:43;99977.81;;;5.90;nan
14343;BME280;7255;53.596;9.960;2023-03-26T03:45:10;99981.06;;;5.92;nan
14343;BME280;7255;53.596;9.960;2023-03-26T03:47:37;99985.16;;;5.94;nan
14343;BME280;7255;53.596;9.960;2023-03-26T03:50:04;99985.16;;;5.94;nan
14343;BME280;7255;53.596;9.960;2023-03-26T03:52:31;99970.09;;;5.68;nan
14343;BME280;7255;53.596;9.960;2023-03-26T03:54:59;99979.09;;;5.67;nan
14343;BME280;7255;53.596;9.960;2023-03-26T03:57:25;99977.50;;;5.66;nan
14343;BME280;7255;53.596;9.960;2023-03-26T03:59:52;99973.34;;;5.77;nan
14343;BME280;7255;53.596;9.960;2023-03-26T04:02:22;99976.63;;;5.79;nan
14343;BME280;7255;53.596;9.960;2023-03-26T04:04:54;99977.81;;;5.83;nan
14343;BME280;7255;53.596;9.960;2023-03-26T04:07:22;99975.38;;;5.82;nan
14343;BME280;7255;53.596;9.960;2023-03-26T04:09:48;99983.97;;;5.84;nan
14343;BME280;7255;53.596;9.960;2023-03-26T04:12:16;99979.03;;;5.87;nan
14343;BME280;7255;53.596;9.960;2023-03-26T04:14:42;99975.38;;;5.82;nan
14343;BME280;7255;53.596;9.960;2023-03-26T04:17:09;99978.25;;;5.80;nan
14343;BME280;7255;53.596;9.960;2023-03-26T04:19:38;99969.19;;;5.88;nan
14343;BME280;7255;53.596;9.960;2023-03-26T04:22:04;99972.09;;;5.79;nan
14343;BME280;7255;53.596;9.960;2023-03-26T04:24:31;99973.75;;;5.74;nan
14343;BME280;7255;53.596;9.960;2023-03-26T04:26:58;99961.50;;;5.66;nan
14343;BME280;7255;53.596;9.960;2023-03-26T04:29:27;99955.78;;;5.49;nan
14343;BME280;7255;53.596;9.960;2023-03-26T04:31:55;99963.59;;;5.51;nan
14343;BME280;7255;53.596;9.960;2023-03-26T04:34:31;99962.37;;;5.47;nan
14343;BME280;7255;53.596;9.960;2023-03-26T04:36:59;99957.91;;;5.40;nan
14343;BME280;7255;53.596;9.960;2023-03-26T04:39:26;99963.22;;;5.40;nan
14343;BME280;7255;53.596;9.960;2023-03-26T04:41:53;99957.06;;;5.40;nan
14343;BME280;7255;53.596;9.960;2023-03-26T04:44:19;99966.50;;;5.43;nan
14343;BME280;7255;53.596;9.960;2023-03-26T04:46:47;99958.31;;;5.37;nan
14343;BME280;7255;53.596;9.960;2023-03-26T04:49:14;99958.72;;;5.34;nan
14343;BME280;7255;53.596;9.960;2023-03-26T04:51:40;99974.28;;;5.44;nan
14343;BME280;7255;53.596;9.960;2023-03-26T04:54:09;99951.75;;;5.33;nan
14343;BME280;7255;53.596;9.960;2023-03-26T04:56:40;99957.91;;;5.34;nan
14343;BME280;7255;53.596;9.960;2023-03-26T04:59:12;99942.34;;;5.24;nan
14343;BME280;7255;53.596;9.960;2023-03-26T05:01:40;99954.66;;;5.18;nan
14343;BME280;7255;53.596;9.960;2023-03-26T05:04:11;99954.25;;;5.15;nan
14343;BME280;7255;53.596;9.960;2023-03-26T05:06:38;99963.25;;;5.14;nan
14343;BME280;7255;53.596;9.960;2023-03-26T05:09:04;99952.63;;;5.07;nan
14343;BME280;7255;53.596;9.960;2023-03-26T05:11:32;99955.50;;;5.06;nan
14343;BME280;7255;53.596;9.960;2023-03-26T05:13:59;99950.19;;;4.99;nan
14343;BME280;7255;53.596;9.960;2023-03-26T05:16:26;99949.38;;;4.98;nan
14343;BME280;7255;53.596;9.960;2023-03-26T05:18:53;99957.97;;;4.94;nan
14343;BME280;7255;53.596;9.960;2023-03-26T05:21:20;99955.50;;;4.92;nan
14343;BME280;7255;53.596;9.960;2023-03-26T05:23:47;99958.78;;;5.01;nan
14343;BME280;7255;53.596;9.960;2023-03-26T05:26:13;99958.78;;;5.08;nan
14343;BME280;7255;53.596;9.960;2023-03-26T05:28:40;99958.34;;;5.17;nan
14343;BME280;7255;53.596;9.960;2023-03-26T05:31:07;99955.87;;;5.16;nan
14343;BME280;7255;53.596;9.960;2023-03-26T05:33:33;99970.22;;;5.28;nan
14343;BME280;7255;53.596;9.960;2023-03-26T05:36:01;99974.69;;;5.34;nan
14343;BME280;7255;53.596;9.960;2023-03-26T05:38:30;99971.81;;;5.36;nan
14343;BME280;7255;53.596;9.960;2023-03-26T05:40:57;99960.81;;;5.19;nan
14343;BME280;7255;53.596;9.960;2023-03-26T05:43:25;99951.41;;;5.03;nan
14343;BME280;7255;53.596;9.960;2023-03-26T05:45:51;99969.41;;;5.14;nan
14343;BME280;7255;53.596;9.960;2023-03-26T05:48:18;99967.38;;;5.10;nan
14343;BME280;7255;53.596;9.960;2023-03-26T05:50:46;99978.84;;;5.17;nan
14343;BME280;7255;53.596;9.960;2023-03-26T05:53:13;99970.25;;;5.15;nan
14343;BME280;7255;53.596;9.960;2023-03-26T05:55:42;99975.56;;;5.15;nan
14343;BME280;7255;53.596;9.960;2023-03-26T05:58:10;99981.69;;;5.15;nan
14343;BME280;7255;53.596;9.960;2023-03-26T06:00:36;99975.56;;;5.15;nan
14343;BME280;7255;53.596;9.960;2023-03-26T06:03:03;99986.19;;;5.28;nan
14343;BME280;7255;53.596;9.960;2023-03-26T06:05:31;99982.47;;;5.36;nan
14343;BME280;7255;53.596;9.960;2023-03-26T06:07:59;99984.13;;;5.30;nan
14343;BME280;7255;53.596;9.960;2023-03-26T06:10:25;99980.84;;;5.35;nan
14343;BME280;7255;53.596;9.960;2023-03-26T06:12:52;99971.00;;;5.35;nan
14343;BME280;7255;53.596;9.960;2023-03-26T06:15:19;99981.25;;;5.38;nan
14343;BME280;7255;53.596;9.960;2023-03-26T06:17:45;99990.66;;;5.41;nan
14343;BME280;7255;53.596;9.960;2023-03-26T06:20:12;99999.22;;;5.56;nan
14343;BME280;7255;53.596;9.960;2023-03-26T06:22:39;100000.47;;;5.61;nan
14343;BME280;7255;53.596;9.960;2023-03-26T06:25:06;99994.28;;;5.67;nan
14343;BME280;7255;53.596;9.960;2023-03-26T06:27:33;99999.16;;;5.76;nan
14343;BME280;7255;53.596;9.960;2023-03-26T06:30:00;100013.50;;;5.89;nan
14343;BME280;7255;53.596;9.960;2023-03-26T06:32:27;100021.62;;;6.07;nan
14343;BME280;7255;53.596;9.960;2023-03-26T06:34:53;100018.34;;;6.12;nan
14343;BME280;7255;53.596;9.960;2023-03-26T06:37:20;100023.28;;;6.08;nan
14343;BME280;7255;53.596;9.960;2023-03-26T06:39:46;100033.87;;;6.22;nan
14343;BME280;7255;53.596;9.960;2023-03-26T06:42:12;100035.09;;;6.26;nan
14343;BME280;7255;53.596;9.960;2023-03-26T06:44:39;100031.81;;;6.30;nan
14343;BME280;7255;53.596;9.960;2023-03-26T06:47:06;100021.13;;;6.30;nan
14343;BME280;7255;53.596;9.960;2023-03-26T06:49:32;100029.75;;;6.26;nan
14343;BME280;7255;53.596;9.960;2023-03-26T06:52:00;100017.56;;;5.91;nan
14343;BME280;7255;53.596;9.960;2023-03-26T06:54:27;100026.59;;;5.90;nan
14343;BME280;7255;53.596;9.960;2023-03-26T06:56:55;100020.44;;;6.03;nan
14343;BME280;7255;53.596;9.960;2023-03-26T06:59:21;100013.87;;;5.92;nan
14343;BME280;7255;53.596;9.960;2023-03-26T07:01:47;100019.63;;;5.89;nan
14343;BME280;7255;53.596;9.960;2023-03-26T07:04:15;100024.97;;;5.96;nan
14343;BME280;7255;53.596;9.960;2023-03-26T07:06:41;100036.03;;;6.06;nan
14343;BME280;7255;53.596;9.960;2023-03-26T07:09:08;100026.25;;;5.73;nan
14343;BME280;7255;53.596;9.960;2023-03-26T07:11:34;100023.34;;;5.82;nan
14343;BME280;7255;53.596;9.960;2023-03-26T07:14:00;100038.09;;;5.84;nan
14343;BME280;7255;53.596;9.960;2023-03-26T07:16:27;100034.81;;;5.89;nan
14343;BME280;7255;53.596;9.960;2023-03-26T07:18:53;100033.16;;;5.94;nan
14343;BME280;7255;53.596;9.960;2023-03-26T07:21:21;100055.28;;;6.08;nan
14343;BME280;7255;53.596;9.960;2023-03-26T07:23:48;100043.38;;;6.11;nan
14343;BME280;7255;53.596;9.960;2023-03-26T07:26:24;100040.13;;;6.02;nan
14343;BME280;7255;53.596;9.960;2023-03-26T07:28:55;100036.84;;;6.07;nan
14343;BME280;7255;53.596;9.960;2023-03-26T07:31:29;100036.78;;;6.13;nan
14343;BME280;7255;53.596;9.960;2023-03-26T07:34:04;100025.41;;;5.86;nan
14343;BME280;7255;53.596;9.960;2023-03-26T07:36:42;100029.06;;;5.92;nan
14343;BME280;7255;53.596;9.960;2023-03-26T07:39:21;100037.66;;;6.01;nan
14343;BME280;7255;53.596;9.960;2023-03-26T07:41:58;100042.97;;;6.14;nan
14343;BME280;7255;53.596;9.960;2023-03-26T07:44:35;100044.09;;;6.31;nan
14343;BME280;7255;53.596;9.960;2023-03-26T07:47:14;100035.00;;;6.39;nan
14343;BME280;7255;53.596;9.960;2023-03-26T07:49:46;100045.69;;;6.39;nan
14343;BME280;7255;53.596;9.960;2023-03-26T07:52:15;100055.47;;;6.52;nan
14343;BME280;7255;53.596;9.960;2023-03-26T07:54:41;100043.69;;;6.34;nan
14343;BME280;7255;53.596;9.960;2023-03-26T07:57:14;100037.16;;;6.24;nan
14343;BME280;7255;53.596;9.960;2023-03-26T07:59:49;100036.75;;;6.20;nan
14343;BME280;7255;53.596;9.960;2023-03-26T08:02:34;100047.41;;;6.27;nan
14343;BME280;7255;53.596;9.960;2023-03-26T08:05:11;100049.00;;;6.41;nan
14343;BME280;7255;53.596;9.960;2023-03-26T08:08:01;100053.87;;;6.44;nan
14343;BME280;7255;53.596;9.960;2023-03-26T08:10:34;100049.31;;;6.51;nan
14343;BME280;7255;53.596;9.960;2023-03-26T08:13:13;100064.91;;;6.54;nan
14343;BME280;7255;53.596;9.960;2023-03-26T08:15:48;100056.72;;;6.49;nan
14343;BME280;7255;53.596;9.960;2023-03-26T08:18:28;100055.03;;;6.62;nan
14343;BME280;7255;53.596;9.960;2023-03-26T08:20:59;100060.75;;;6.65;nan
14343;BME280;7255;53.596;9.960;2023-03-26T08:23:31;100044.47;;;6.42;nan
14343;BME280;7255;53.596;9.960;2023-03-26T08:26:04;100060.00;;;6.51;nan
14343;BME280;7255;53.596;9.960;2023-03-26T08:28:43;100047.72;;;6.50;nan
14343;BME280;7255;53.596;9.960;2023-03-26T08:31:13;100050.78;;;6.79;nan
14343;BME280;7255;53.596;9.960;2023-03-26T08:33:41;100057.34;;;6.83;nan
14343;BME280;7255;53.596;9.960;2023-03-26T08:36:09;100057.78;;;6.80;nan
14343;BME280;7255;53.596;9.960;2023-03-26T08:38:36;100059.09;;;6.64;nan
14343;BME280;7255;53.596;9.960;2023-03-26T08:41:40;100073.31;;;6.90;nan
14343;BME280;7255;53.596;9.960;2023-03-26T08:44:34;100068.31;;;7.00;nan
14343;BME280;7255;53.596;9.960;2023-03-26T08:50:37;100075.78;;;6.91;nan
14343;BME280;7255;53.596;9.960;2023-03-26T08:56:07;100068.50;;;6.73;nan
14343;BME280;7255;53.596;9.960;2023-03-26T08:59:00;100061.47;;;6.79;nan
14343;BME280;7255;53.596;9.960;2023-03-26T09:01:57;100056.81;;;7.00;nan
14343;BME280;7255;53.596;9.960;2023-03-26T09:05:08;100056.63;;;7.20;nan
14343;BME280;7255;53.596;9.960;2023-03-26T09:08:05;100060.63;;;7.36;nan
14343;BME280;7255;53.596;9.960;2023-03-26T09:14:12;100083.12;;;7.90;nan
14343;BME280;7255;53.596;9.960;2023-03-26T09:17:13;100067.94;;;7.84;nan
14343;BME280;7255;53.596;9.960;2023-03-26T09:23:26;100065.72;;;7.62;nan
14343;BME280;7255;53.596;9.960;2023-03-26T09:26:26;100067.28;;;7.26;nan
14343;BME280;7255;53.596;9.960;2023-03-26T09:29:42;100065.81;;;7.05;nan
14343;BME280;7255;53.596;9.960;2023-03-26T09:32:41;100062.69;;;7.33;nan
14343;BME280;7255;53.596;9.960;2023-03-26T09:35:32;100066.16;;;7.59;nan
14343;BME280;7255;53.596;9.960;2023-03-26T09:38:10;100086.22;;;8.05;nan
14343;BME280;7255;53.596;9.960;2023-03-26T09:40:51;100085.94;;;7.95;nan
14343;BME280;7255;53.596;9.960;2023-03-26T09:43:45;100079.62;;;8.08;nan
14343;BME280;7255;53.596;9.960;2023-03-26T09:46:28;100085.94;;;7.95;nan
14343;BME280;7255;53.596;9.960;2023-03-26T09:49:14;100081.88;;;7.49;nan
14343;BME280;7255;53.596;9.960;2023-03-26T09:51:55;100079.34;;;7.54;nan
14343;BME280;7255;53.596;9.960;2023-03-26T09:54:42;100089.81;;;7.81;nan
14343;BME280;7255;53.596;9.960;2023-03-26T09:57:20;100092.31;;;7.76;nan
14343;BME280;7255;53.596;9.960;2023-03-26T10:00:00;100094.56;;;7.97;nan
14343;BME280;7255;53.596;9.960;2023-03-26T10:02:44;100096.62;;;8.32;nan
14343;BME280;7255;53.596;9.960;2023-03-26T10:05:22;100103.59;;;8.33;nan
14343;BME280;7255;53.596;9.960;2023-03-26T10:08:05;100099.81;;;8.04;nan
14343;BME280;7255;53.596;9.960;2023-03-26T10:10:42;100105.63;;;8.38;nan
14343;BME280;7255;53.596;9.960;2023-03-26T10:13:22;100109.19;;;8.80;nan
14343;BME280;7255;53.596;9.960;2023-03-26T10:16:01;100118.09;;;8.93;nan
14343;BME280;7255;53.596;9.960;2023-03-26T10:18:40;100113.47;;;9.00;nan
14343;BME280;7255;53.596;9.960;2023-03-26T10:21:20;100116.62;;;9.09;nan
14343;BME280;7255;53.596;9.960;2023-03-26T10:23:59;100117.16;;;8.99;nan
14343;BME280;7255;53.596;9.960;2023-03-26T10:26:38;100108.22;;;8.63;nan
14343;BME280;7255;53.596;9.960;2023-03-26T10:29:28;100108.47;;;8.73;nan
14343;BME280;7255;53.596;9.960;2023-03-26T10:32:08;100116.41;;;9.22;nan
14343;BME280;7255;53.596;9.960;2023-03-26T10:35:03;100105.56;;;9.05;nan
14343;BME280;7255;53.596;9.960;2023-03-26T10:37:40;100118.09;;;8.93;nan
14343;BME280;7255;53.596;9.960;2023-03-26T10:40:19;100108.94;;;8.70;nan
14343;BME280;7255;53.596;9.960;2023-03-26T10:43:13;100111.00;;;8.68;nan
14343;BME280;7255;53.596;9.960;2023-03-26T10:45:58;100109.84;;;8.94;nan
14343;BME280;7255;53.596;9.960;2023-03-26T10:48:43;100113.81;;;8.43;nan
14343;BME280;7255;53.596;9.960;2023-03-26T10:51:26;100105.13;;;8.10;nan
14343;BME280;7255;53.596;9.960;2023-03-26T10:54:01;100101.41;;;8.12;nan
14343;BME280;7255;53.596;9.960;2023-03-26T10:56:31;100109.41;;;8.30;nan
14343;BME280;7255;53.596;9.960;2023-03-26T10:59:01;100110.59;;;8.34;nan
14343;BME280;7255;53.596;9.960;2023-03-26T11:01:36;100106.75;;;8.48;nan
14343;BME280;7255;53.596;9.960;2023-03-26T11:04:17;100116.81;;;8.95;nan
14343;BME280;7255;53.596;9.960;2023-03-26T11:06:53;100112.59;;;9.53;nan
14343;BME280;7255;53.596;9.960;2023-03-26T11:09:30;100111.09;;;9.46;nan
14343;BME280;7255;53.596;9.960;2023-03-26T11:12:05;100104.13;;;8.91;nan
14343;BME280;7255;53.596;9.960;2023-03-26T11:14:38;100107.75;;;8.66;nan
14343;BME280;7255;53.596;9.960;2023-03-26T11:17:12;100104.34;;;8.40;nan
14343;BME280;7255;53.596;9.960;2023-03-26T11:19:47;100104.06;;;8.30;nan
14343;BME280;7255;53.596;9.960;2023-03-26T11:22:23;100105.09;;;8.47;nan
14343;BME280;7255;53.596;9.960;2023-03-26T11:25:12;100103.94;;;8.74;nan
14343;BME280;7255;53.596;9.960;2023-03-26T11:27:52;100105.50;;;8.81;nan
14343;BME280;7255;53.596;9.960;2023-03-26T11:30:28;100097.22;;;8.53;nan
14343;BME280;7255;53.596;9.960;2023-03-26T11:33:02;100104.47;;;8.64;nan
14343;BME280;7255;53.596;9.960;2023-03-26T11:35:33;100098.22;;;8.70;nan
14343;BME280;7255;53.596;9.960;2023-03-26T11:38:04;100107.00;;;8.59;nan
14343;BME280;7255;53.596;9.960;2023-03-26T11:40:33;100108.75;;;8.53;nan
14343;BME280;7255;53.596;9.960;2023-03-26T11:43:04;100103.16;;;8.36;nan
14343;BME280;7255;53.596;9.960;2023-03-26T11:45:34;100093.50;;;8.17;nan
14343;BME280;7255;53.596;9.960;2023-03-26T11:48:03;100103.78;;;8.20;nan
14343;BME280;7255;53.596;9.960;2023-03-26T11:50:35;100094.63;;;8.27;nan
14343;BME280;7255;53.596;9.960;2023-03-26T11:53:11;100102.38;;;8.66;nan
14343;BME280;7255;53.596;9.960;2023-03-26T11:55:40;100086.78;;;8.63;nan
14343;BME280;7255;53.596;9.960;2023-03-26T11:58:23;100094.78;;;8.81;nan
14343;BME280;7255;53.596;9.960;2023-03-26T12:00:52;100094.66;;;8.88;nan
14343;BME280;7255;53.596;9.960;2023-03-26T12:03:19;100094.22;;;8.91;nan
14343;BME280;7255;53.596;9.960;2023-03-26T12:05:47;100099.47;;;8.67;nan
14343;BME280;7255;53.596;9.960;2023-03-26T12:08:20;100085.88;;;8.69;nan
14343;BME280;7255;53.596;9.960;2023-03-26T12:10:50;100089.56;;;8.98;nan
14343;BME280;7255;53.596;9.960;2023-03-26T12:13:34;100082.97;;;8.71;nan
14343;BME280;7255;53.596;9.960;2023-03-26T12:16:06;100087.59;;;8.63;nan
14343;BME280;7255;53.596;9.960;2023-03-26T12:18:34;100085.59;;;8.59;nan
14343;BME280;7255;53.596;9.960;2023-03-26T12:21:03;100085.16;;;8.62;nan
14343;BME280;7255;53.596;9.960;2023-03-26T12:23:35;100081.25;;;8.76;nan
14343;BME280;7255;53.596;9.960;2023-03-26T12:26:19;100087.41;;;8.77;nan
14343;BME280;7255;53.596;9.960;2023-03-26T12:28:47;100090.66;;;8.79;nan
14343;BME280;7255;53.596;9.960;2023-03-26T12:31:14;100073.25;;;8.58;nan
14343;BME280;7255;53.596;9.960;2023-03-26T12:33:44;100086.41;;;8.90;nan
14343;BME280;7255;53.596;9.960;2023-03-26T12:36:18;100076.41;;;8.97;nan
14343;BME280;7255;53.596;9.960;2023-03-26T12:38:46;100072.00;;;9.14;nan
14343;BME280;7255;53.596;9.960;2023-03-26T12:41:15;100075.78;;;8.83;nan
14343;BME280;7255;53.596;9.960;2023-03-26T12:43:43;100078.22;;;8.84;nan
14343;BME280;7255;53.596;9.960;2023-03-26T12:46:23;100090.12;;;8.89;nan
14343;BME280;7255;53.596;9.960;2023-03-26T12:48:51;100077.25;;;8.67;nan
14343;BME280;7255;53.596;9.960;2023-03-26T12:51:28;100084.94;;;9.05;nan
14343;BME280;7255;53.596;9.960;2023-03-26T12:54:07;100081.66;;;9.03;nan
14343;BME280;7255;53.596;9.960;2023-03-26T12:56:45;100091.59;;;9.27;nan
14343;BME280;7255;53.596;9.960;2023-03-26T12:59:26;100090.78;;;9.26;nan
14343;BME280;7255;53.596;9.960;2023-03-26T13:02:01;100089.47;;;9.05;nan
14343;BME280;7255;53.596;9.960;2023-03-26T13:04:51;100095.56;;;9.36;nan
14343;BME280;7255;53.596;9.960;2023-03-26T13:07:28;100090.53;;;9.39;nan
14343;BME280;7255;53.596;9.960;2023-03-26T13:17:59;100085.69;;;9.36;nan
14343;BME280;7255;53.596;9.960;2023-03-26T13:20:32;100079.59;;;9.29;nan
14343;BME280;7255;53.596;9.960;2023-03-26T13:23:08;100081.81;;;9.20;nan
14343;BME280;7255;53.596;9.960;2023-03-26T13:25:44;100083.03;;;8.94;nan
14343;BME280;7255;53.596;9.960;2023-03-26T13:28:23;100080.75;;;9.33;nan
14343;BME280;7255;53.596;9.960;2023-03-26T13:30:57;100091.84;;;9.84;nan
14343;BME280;7255;53.596;9.960;2023-03-26T13:33:38;100092.75;;;9.78;nan
14343;BME280;7255;53.596;9.960;2023-03-26T13:36:09;100098.50;;;9.34;nan
14343;BME280;7255;53.596;9.960;2023-03-26T13:38:49;100089.28;;;9.42;nan
14343;BME280;7255;53.596;9.960;2023-03-26T13:41:27;100094.41;;;9.55;nan
14343;BME280;7255;53.596;9.960;2023-03-26T13:44:06;100091.59;;;9.50;nan
14343;BME280;7255;53.596;9.960;2023-03-26T13:46:37;100095.22;;;9.56;nan
14343;BME280;7255;53.596;9.960;2023-03-26T13:49:09;100089.03;;;9.32;nan
14343;BME280;7255;53.596;9.960;2023-03-26T13:51:39;100076.00;;;9.23;nan
14343;BME280;7255;53.596;9.960;2023-03-26T13:54:15;100082.75;;;9.38;nan
14343;BME280;7255;53.596;9.960;2023-03-26T13:56:46;100067.34;;;9.45;nan
14343;BME280;7255;53.596;9.960;2023-03-26T13:59:19;100071.66;;;9.58;nan
14343;BME280;7255;53.596;9.960;2023-03-26T14:01:51;100077.72;;;9.65;nan
14343;BME280;7255;53.596;9.960;2023-03-26T14:04:23;100085.44;;;9.73;nan
14343;BME280;7255;53.596;9.960;2023-03-26T14:07:00;100083.69;;;9.79;nan
14343;BME280;7255;53.596;9.960;2023-03-26T14:09:30;100091.41;;;9.63;nan
14343;BME280;7255;53.596;9.960;2023-03-26T14:12:22;100070.59;;;9.71;nan
14343;BME280;7255;53.596;9.960;2023-03-26T14:14:53;100084.09;;;9.99;nan
14343;BME280;7255;53.596;9.960;2023-03-26T14:17:23;100097.19;;;10.08;nan
14343;BME280;7255;53.596;9.960;2023-03-26T14:20:25;100089.62;;;9.69;nan
14343;BME280;7255;53.596;9.960;2023-03-26T14:23:14;100095.34;;;9.49;nan
14343;BME280;7255;53.596;9.960;2023-03-26T14:25:55;100099.31;;;9.35;nan
14343;BME280;7255;53.596;9.960;2023-03-26T14:31:26;100101.75;;;9.48;nan
14343;BME280;7255;53.596;9.960;2023-03-26T14:34:11;100087.28;;;9.61;nan